Time;durP1;ratioP1;P1;durP2;ratioP2;P2;SDS_P1;SDS_P2;PMS_P1;PMS_P2;Temp;Humidity;BMP_temperature;BMP_pressure;BME280_temperature;BME280_humidity;BME280_pressure;Samples;Min_cycle;Max_cycle;Signal;HPM_P1;HPM_P2
2021/06/27 00:03:11;;;;;;;13.17;10.83;;;;;;;15.12;69.97;99634.39;531861;1090;117194;-59
2021/06/27 00:13:18;;;;;;;12.80;11.47;;;;;;;14.91;70.44;99632.57;532682;1088;115847;-59
2021/06/27 00:23:28;;;;;;;10.83;9.40;;;;;;;14.77;70.73;99638.12;532639;1089;117146;-60
2021/06/27 00:33:35;;;;;;;9.98;9.05;;;;;;;14.77;70.65;99632.83;531828;1089;116210;-59
2021/06/27 00:43:41;;;;;;;10.97;9.70;;;;;;;14.78;70.78;99643.30;529558;1089;115400;-59
2021/06/27 00:53:49;;;;;;;11.80;10.60;;;;;;;14.75;70.98;99637.41;531889;1089;117605;-59
2021/06/27 01:03:56;;;;;;;14.33;11.13;;;;;;;14.61;71.11;99643.80;532552;1089;116214;-60
2021/06/27 01:14:03;;;;;;;11.40;9.20;;;;;;;14.45;71.01;99649.47;532519;1090;116699;-60
2021/06/27 01:24:11;;;;;;;11.70;9.37;;;;;;;14.42;71.40;99643.44;531836;1090;116315;-60
2021/06/27 01:34:18;;;;;;;14.37;11.80;;;;;;;14.45;71.32;99658.21;532656;1089;116155;-60
2021/06/27 01:44:25;;;;;;;13.15;11.75;;;;;;;14.38;71.40;99649.12;532551;1089;116621;-60
2021/06/27 01:54:31;;;;;;;11.77;10.13;;;;;;;14.23;71.67;99648.52;531881;1089;116277;-60
2021/06/27 02:04:38;;;;;;;11.67;9.67;;;;;;;14.37;72.04;99634.20;532616;1089;116421;-60
2021/06/27 02:14:45;;;;;;;11.57;10.37;;;;;;;14.59;71.84;99651.84;531804;1089;116034;-59
2021/06/27 02:24:52;;;;;;;13.20;11.80;;;;;;;14.60;71.33;99650.02;532600;1089;116933;-60
2021/06/27 02:34:58;;;;;;;14.83;11.47;;;;;;;14.59;71.64;99646.55;532601;1088;117073;-60
2021/06/27 02:45:07;;;;;;;12.20;10.93;;;;;;;14.78;71.44;99645.11;531364;1089;116092;-60
2021/06/27 02:55:15;;;;;;;11.70;10.40;;;;;;;15.41;71.44;99644.38;532600;1090;116176;-60
2021/06/27 03:05:22;;;;;;;12.65;11.35;;;;;;;17.39;68.86;99640.56;532555;1089;117094;-59
2021/06/27 03:15:28;;;;;;;12.70;11.30;;;;;;;18.87;66.16;99638.14;531842;1088;116425;-59
2021/06/27 03:25:35;;;;;;;13.03;11.80;;;;;;;19.61;64.53;99640.61;532575;1090;118134;-60
2021/06/27 03:35:41;;;;;;;15.97;12.33;;;;;;;20.07;62.05;99634.24;531934;1089;116959;-58
2021/06/27 03:45:48;;;;;;;18.20;14.63;;;;;;;19.43;62.46;99619.35;532471;1090;116282;-60
2021/06/27 03:55:57;;;;;;;13.87;12.50;;;;;;;21.66;63.44;99621.86;532638;1089;116068;-60
2021/06/27 04:06:04;;;;;;;17.70;15.90;;;;;;;27.43;56.23;99603.78;531895;1089;116968;-60
2021/06/27 04:16:10;;;;;;;15.53;13.90;;;;;;;31.60;49.58;99607.18;532241;1088;117511;-62
2021/06/27 04:26:17;;;;;;;13.98;12.73;;;;;;;34.72;44.09;99608.33;532413;1090;116681;-60
2021/06/27 04:36:22;;;;;;;;;;;;;;;37.48;38.77;99599.22;531863;1089;116881;-62
2021/06/27 04:46:28;;;;;;;15.37;13.93;;;;;;;40.06;35.97;99592.84;532965;1089;102200;-62
2021/06/27 04:56:35;;;;;;;14.85;13.18;;;;;;;41.70;32.49;99601.42;532661;1089;116625;-61
2021/06/27 05:06:42;;;;;;;9.78;9.08;;;;;;;42.92;28.63;99594.52;532517;1089;116735;-61
2021/06/27 05:16:48;;;;;;;10.20;8.70;;;;;;;45.05;25.91;99599.23;532526;1088;116295;-61
2021/06/27 05:26:54;;;;;;;8.00;7.23;;;;;;;45.85;22.49;99602.45;531497;1089;116880;-60
2021/06/27 05:37:02;;;;;;;6.55;5.68;;;;;;;46.53;22.02;99609.73;532598;1090;115512;-61
2021/06/27 05:47:09;;;;;;;4.65;4.25;;;;;;;49.02;19.54;99619.78;532429;1089;116614;-61
2021/06/27 05:57:15;;;;;;;5.33;5.03;;;;;;;47.14;18.92;99610.27;531712;1089;117512;-65
2021/06/27 06:07:22;;;;;;;4.33;4.03;;;;;;;49.16;17.45;99602.61;532231;1090;116009;-68
2021/06/27 06:17:29;;;;;;;3.60;3.40;;;;;;;50.71;16.48;99610.76;532413;1088;116463;-63
2021/06/27 06:27:35;;;;;;;3.63;3.27;;;;;;;49.69;16.08;99623.78;531724;1089;118531;-62
2021/06/27 06:37:42;;;;;;;4.03;3.73;;;;;;;50.53;14.73;99627.16;531943;1089;117368;-62
2021/06/27 06:47:48;;;;;;;3.75;3.55;;;;;;;51.26;14.11;99628.47;530974;1088;117307;-67
2021/06/27 06:57:55;;;;;;;4.25;3.80;;;;;;;49.40;14.19;99620.33;531974;1090;117298;-63
2021/06/27 07:08:02;;;;;;;3.75;3.40;;;;;;;50.73;13.59;99621.57;531899;1088;116678;-63
2021/06/27 07:18:08;;;;;;;3.60;3.40;;;;;;;51.09;13.11;99621.41;530311;1089;116540;-63
2021/06/27 07:28:13;;;;;;;;;;;;;;;49.89;12.49;99622.64;532549;1089;115715;-63
2021/06/27 07:38:19;;;;;;;4.25;3.98;;;;;;;51.15;12.63;99619.90;532026;1089;102217;-63
2021/06/27 07:48:26;;;;;;;2.03;1.90;;;;;;;50.07;11.92;99615.86;531915;1088;117264;-62
2021/06/27 07:58:32;;;;;;;2.35;2.25;;;;;;;39.35;16.08;99605.19;532564;1090;116357;-61
2021/06/27 08:08:39;;;;;;;2.63;2.43;;;;;;;34.47;19.84;99615.16;532627;1088;117547;-62
2021/06/27 08:18:45;;;;;;;2.00;1.90;;;;;;;31.16;22.07;99626.50;532550;1089;116510;-61
2021/06/27 08:28:52;;;;;;;3.05;1.80;;;;;;;29.64;24.64;99630.70;532641;1090;117053;-61
2021/06/27 08:38:58;;;;;;;3.40;2.00;;;;;;;28.74;25.58;99629.91;531793;1089;116792;-61
2021/06/27 08:49:05;;;;;;;2.10;2.00;;;;;;;28.88;26.32;99619.88;531190;1089;115837;-62
2021/06/27 08:59:10;;;;;;;;;;;;;;;29.32;26.68;99628.90;532515;1089;116335;-61
2021/06/27 09:09:21;;;;;;;1.80;1.70;;;;;;;29.05;26.31;99618.31;522749;1090;103061;-62
2021/06/27 09:19:27;;;;;;;1.80;1.70;;;;;;;29.07;26.46;99624.33;527334;1089;115552;-62
2021/06/27 09:29:34;;;;;;;2.08;1.90;;;;;;;28.75;27.19;99623.49;532635;1089;116588;-62
2021/06/27 09:39:55;;;;;;;2.00;1.88;;;;;;;29.32;27.29;99619.95;531917;1088;116870;-62
2021/06/27 09:50:03;;;;;;;4.03;2.37;;;;;;;28.88;27.62;99603.67;532566;1090;116015;-62
2021/06/27 10:00:33;;;;;;;2.33;2.10;;;;;;;28.11;28.14;99598.02;531906;1088;117426;-61
2021/06/27 10:10:40;;;;;;;5.83;2.63;;;;;;;27.26;29.53;99604.20;532508;1090;117460;-61
2021/06/27 10:20:47;;;;;;;3.77;2.53;;;;;;;27.44;30.00;99605.44;531911;1089;117281;-61
2021/06/27 10:30:53;;;;;;;2.68;2.48;;;;;;;27.43;29.87;99591.12;532534;1090;116853;-62
2021/06/27 10:41:01;;;;;;;2.53;2.33;;;;;;;26.94;30.14;99599.43;532194;1088;115597;-61
2021/06/27 10:51:10;;;;;;;2.67;2.40;;;;;;;26.87;30.72;99582.42;530868;1088;116916;-62
2021/06/27 11:01:16;;;;;;;1.90;1.80;;;;;;;26.10;31.57;99588.82;532638;1088;116677;-62
2021/06/27 11:11:25;;;;;;;3.03;2.10;;;;;;;25.97;31.82;99584.20;532508;1088;115882;-62
2021/06/27 11:21:39;;;;;;;4.03;2.10;;;;;;;26.28;31.62;99593.68;531682;1089;116617;-62
2021/06/27 11:31:45;;;;;;;3.43;2.23;;;;;;;26.40;31.60;99566.17;532462;1088;117252;-61
2021/06/27 11:41:51;;;;;;;3.17;1.83;;;;;;;25.91;31.51;99558.09;531810;1089;116240;-61
2021/06/27 11:51:59;;;;;;;2.30;2.10;;;;;;;26.12;31.48;99562.54;532189;1088;115880;-61
2021/06/27 12:02:17;;;;;;;2.30;2.10;;;;;;;26.27;31.88;99546.27;532589;1089;116469;-61
2021/06/27 12:12:40;;;;;;;3.00;1.97;;;;;;;26.40;31.17;99536.57;531936;1090;116636;-61
2021/06/27 12:22:57;;;;;;;3.63;1.93;;;;;;;25.83;31.50;99526.01;532599;1088;116727;-61
2021/06/27 12:33:02;;;;;;;;;;;;;;;26.05;31.81;99525.89;531914;1088;166363;-61
2021/06/27 12:43:22;;;;;;;1.60;1.50;;;;;;;26.47;31.43;99541.97;528148;1089;102217;-61
2021/06/27 12:54:02;;;;;;;1.73;1.63;;;;;;;26.16;31.47;99533.38;531737;1089;116241;-61
2021/06/27 13:04:08;;;;;;;2.00;1.90;;;;;;;25.81;31.83;99526.20;532654;1089;116272;-62
2021/06/27 13:14:27;;;;;;;1.80;1.70;;;;;;;25.81;31.38;99523.51;532601;1089;116480;-61
2021/06/27 13:24:54;;;;;;;2.30;2.10;;;;;;;25.83;32.13;99526.83;531878;1089;116329;-61
2021/06/27 13:35:00;;;;;;;9.90;3.10;;;;;;;25.81;32.32;99520.01;532488;1089;116198;-62
2021/06/27 13:45:08;;;;;;;2.23;2.07;;;;;;;26.12;32.73;99510.58;531321;1090;118217;-61
2021/06/27 13:55:16;;;;;;;2.30;1.60;;;;;;;26.42;31.67;99516.47;531144;1090;116971;-61
2021/06/27 14:05:23;;;;;;;4.65;2.45;;;;;;;26.21;32.32;99505.89;532582;1089;116134;-61
2021/06/27 14:15:30;;;;;;;2.03;1.70;;;;;;;26.32;31.78;99504.45;531852;1089;116323;-62
2021/06/27 14:25:38;;;;;;;2.38;1.58;;;;;;;26.44;31.96;99500.97;532634;1089;116841;-62
2021/06/27 14:35:45;;;;;;;1.80;1.70;;;;;;;26.12;32.60;99497.13;531908;1090;116670;-62
2021/06/27 14:45:51;;;;;;;5.53;2.43;;;;;;;25.94;32.35;99498.54;532642;1089;116593;-61
2021/06/27 14:55:58;;;;;;;1.63;1.53;;;;;;;25.58;33.18;99492.39;532640;1089;117013;-61
2021/06/27 15:06:05;;;;;;;1.95;1.85;;;;;;;25.34;33.30;99491.01;531884;1089;116643;-62
2021/06/27 15:16:12;;;;;;;5.97;2.60;;;;;;;25.23;33.56;99492.38;532594;1089;116131;-61
2021/06/27 15:26:21;;;;;;;1.93;1.77;;;;;;;25.08;33.41;99495.16;532614;1089;116727;-61
2021/06/27 15:36:30;;;;;;;1.73;1.63;;;;;;;25.01;33.20;99491.61;531829;1088;116234;-62
2021/06/27 15:46:39;;;;;;;3.03;2.33;;;;;;;24.84;34.01;99486.52;530407;1090;117805;-62
2021/06/27 15:56:46;;;;;;;4.47;3.83;;;;;;;24.58;34.10;99485.25;531873;1089;116089;-63
2021/06/27 16:06:54;;;;;;;5.27;2.77;;;;;;;24.46;34.78;99486.80;532524;1089;116088;-62
2021/06/27 16:17:01;;;;;;;1.70;1.60;;;;;;;24.39;35.12;99484.05;532506;1090;116531;-62
2021/06/27 16:27:08;;;;;;;2.53;1.47;;;;;;;24.21;35.20;99487.17;531847;1088;116785;-63
2021/06/27 16:37:14;;;;;;;1.55;1.43;;;;;;;24.03;35.50;99485.73;532253;1089;116073;-64
2021/06/27 16:47:21;;;;;;;1.83;1.73;;;;;;;23.86;35.71;99492.33;532648;1089;115690;-62
2021/06/27 16:57:27;;;;;;;2.00;1.10;;;;;;;23.76;36.06;99485.41;528458;1089;116026;-62
2021/06/27 17:07:33;;;;;;;1.53;1.43;;;;;;;23.57;36.04;99486.81;532572;1089;116200;-61
2021/06/27 17:17:40;;;;;;;2.20;2.00;;;;;;;23.34;36.36;99486.91;532549;1089;116508;-61
2021/06/27 17:27:48;;;;;;;1.97;1.70;;;;;;;23.08;36.61;99482.80;531232;1090;116936;-61
2021/06/27 17:37:55;;;;;;;4.60;1.40;;;;;;;22.85;37.00;99483.69;532603;1089;116921;-61
2021/06/27 17:48:01;;;;;;;2.38;1.38;;;;;;;22.71;37.42;99485.30;531850;1090;115809;-61
2021/06/27 17:58:09;;;;;;;1.37;1.07;;;;;;;23.63;37.17;99490.59;532656;1088;115576;-62
2021/06/27 18:08:15;;;;;;;1.60;1.50;;;;;;;22.79;36.90;99492.42;532590;1089;116353;-61
2021/06/27 18:18:22;;;;;;;2.53;1.50;;;;;;;22.29;37.40;99497.31;531833;1089;115948;-61
2021/06/27 18:28:29;;;;;;;1.47;1.20;;;;;;;21.94;37.85;99487.82;532624;1089;116937;-61
2021/06/27 18:38:36;;;;;;;3.83;1.60;;;;;;;21.60;38.45;99488.10;532307;1089;115462;-62
2021/06/27 18:48:42;;;;;;;5.47;1.57;;;;;;;21.31;39.00;99487.69;532592;1089;115482;-63
2021/06/27 18:58:49;;;;;;;7.90;2.37;;;;;;;20.95;39.82;99494.28;532670;1089;115710;-62
2021/06/27 19:08:56;;;;;;;10.07;2.10;;;;;;;20.52;41.21;99509.59;531796;1089;116157;-63
2021/06/27 19:19:02;;;;;;;4.00;2.17;;;;;;;20.07;43.07;99511.65;532536;1088;116276;-62
2021/06/27 19:29:09;;;;;;;16.27;3.97;;;;;;;19.59;44.90;99509.44;525289;1088;116484;-62
2021/06/27 19:39:18;;;;;;;7.47;2.50;;;;;;;19.14;46.41;99525.48;530709;1089;116990;-63
2021/06/27 19:49:24;;;;;;;4.10;1.77;;;;;;;18.72;47.92;99534.95;531220;1088;116630;-62
2021/06/27 19:59:31;;;;;;;6.00;3.17;;;;;;;18.35;49.41;99546.56;532445;1090;116141;-63
2021/06/27 20:09:37;;;;;;;8.17;2.73;;;;;;;17.95;50.38;99556.55;531830;1089;117824;-62
2021/06/27 20:19:44;;;;;;;6.00;3.23;;;;;;;17.65;51.49;99571.75;529155;1090;116152;-62
2021/06/27 20:29:50;;;;;;;4.80;2.67;;;;;;;17.32;52.88;99576.61;531671;1089;117595;-61
2021/06/27 20:39:57;;;;;;;5.77;2.60;;;;;;;16.98;53.78;99584.99;532556;1089;116797;-61
2021/06/27 20:50:03;;;;;;;5.40;3.33;;;;;;;16.72;54.94;99586.38;532510;1089;117369;-61
2021/06/27 21:00:12;;;;;;;8.33;3.38;;;;;;;16.50;55.93;99590.94;531866;1089;116140;-61
2021/06/27 21:10:19;;;;;;;5.20;3.57;;;;;;;16.39;56.73;99583.11;532586;1089;116652;-61
2021/06/27 21:20:25;;;;;;;5.27;4.10;;;;;;;16.44;57.54;99588.83;532533;1089;116622;-61
2021/06/27 21:30:32;;;;;;;10.10;4.67;;;;;;;16.43;57.66;99584.50;531765;1089;116784;-61
2021/06/27 21:40:40;;;;;;;6.87;4.40;;;;;;;16.25;58.42;99587.83;532564;1089;116151;-62
2021/06/27 21:50:46;;;;;;;11.43;4.30;;;;;;;16.04;58.64;99595.83;531877;1088;116932;-62
2021/06/27 22:00:52;;;;;;;5.80;4.87;;;;;;;15.82;59.39;99610.06;532583;1088;116587;-62
2021/06/27 22:10:59;;;;;;;5.77;3.70;;;;;;;15.68;59.73;99606.80;532612;1089;115854;-62
2021/06/27 22:21:06;;;;;;;5.43;3.80;;;;;;;15.67;60.00;99612.21;531761;1089;116203;-62
2021/06/27 22:31:13;;;;;;;6.93;4.13;;;;;;;15.61;60.30;99604.81;532676;1089;117382;-62
2021/06/27 22:41:20;;;;;;;8.00;5.00;;;;;;;15.44;60.56;99612.35;532654;1089;116590;-62
2021/06/27 22:51:26;;;;;;;10.73;5.17;;;;;;;15.26;61.15;99618.23;531896;1088;116043;-62
2021/06/27 23:01:32;;;;;;;6.37;5.20;;;;;;;15.01;61.64;99614.14;532615;1089;116640;-62
2021/06/27 23:11:39;;;;;;;6.67;5.33;;;;;;;14.87;61.83;99606.52;532623;1088;116982;-62
2021/06/27 23:21:46;;;;;;;9.03;5.23;;;;;;;14.85;62.33;99606.63;532545;1089;117577;-62
2021/06/27 23:31:52;;;;;;;5.80;5.20;;;;;;;14.83;62.52;99609.41;532601;1089;117355;-63
2021/06/27 23:41:59;;;;;;;5.83;5.23;;;;;;;14.71;62.45;99602.42;531819;1090;116239;-61
2021/06/27 23:52:06;;;;;;;6.63;5.13;;;;;;;14.54;62.74;99603.79;532638;1089;116604;-61
